createdAt,value
2022-08-14T00:00:15.831Z,22.00
2022-08-14T00:02:45.866Z,22.00
2022-08-14T00:05:16.784Z,22.00
2022-08-14T00:07:46.356Z,21.90
2022-08-14T00:10:51.585Z,21.90
2022-08-14T00:13:08.172Z,21.90
2022-08-14T00:15:44.174Z,21.80
2022-08-14T00:18:30.676Z,21.80
2022-08-14T00:21:04.840Z,21.80
2022-08-14T00:23:39.061Z,21.70
2022-08-14T00:26:21.754Z,21.70
2022-08-14T00:28:52.059Z,21.70
2022-08-14T00:31:44.294Z,21.60
2022-08-14T00:34:37.376Z,21.60
2022-08-14T00:36:57.300Z,21.60
2022-08-14T00:39:27.268Z,21.50
2022-08-14T00:41:56.651Z,21.50
2022-08-14T00:44:32.328Z,21.50
2022-08-14T00:47:02.375Z,21.50
2022-08-14T00:49:43.271Z,21.40
2022-08-14T00:52:14.067Z,21.40
2022-08-14T00:54:46.380Z,21.40
2022-08-14T00:57:16.301Z,21.40
2022-08-14T00:59:45.485Z,21.30
2022-08-14T01:02:16.170Z,21.30
2022-08-14T01:04:53.664Z,21.20
2022-08-14T01:07:23.945Z,21.20
2022-08-14T01:09:53.450Z,21.20
2022-08-14T01:12:27.289Z,21.10
2022-08-14T01:14:58.607Z,21.10
2022-08-14T01:17:49.689Z,21.10
2022-08-14T01:20:40.088Z,21.10
2022-08-14T01:23:16.219Z,21.10
2022-08-14T01:25:48.297Z,21.00
2022-08-14T01:28:47.231Z,21.00
2022-08-14T01:31:06.500Z,21.00
2022-08-14T01:33:59.793Z,21.00
2022-08-14T01:36:23.780Z,20.90
2022-08-14T01:38:56.589Z,20.90
2022-08-14T01:41:30.040Z,20.90
2022-08-14T01:44:02.204Z,20.90
2022-08-14T01:46:36.686Z,20.80
2022-08-14T01:49:07.572Z,20.80
2022-08-14T01:51:37.073Z,20.80
2022-08-14T01:54:09.432Z,20.70
2022-08-14T01:56:39.707Z,20.70
2022-08-14T01:59:14.548Z,20.70
2022-08-14T02:01:51.450Z,20.70
2022-08-14T02:04:40.587Z,20.70
2022-08-14T02:07:15.453Z,20.70
2022-08-14T02:09:45.253Z,20.70
2022-08-14T02:12:26.296Z,20.70
2022-08-14T02:15:00.497Z,20.70
2022-08-14T02:17:30.638Z,20.70
2022-08-14T02:20:02.889Z,20.60
2022-08-14T02:22:33.322Z,20.60
2022-08-14T02:25:03.343Z,20.60
2022-08-14T02:28:21.991Z,20.60
2022-08-14T02:30:19.247Z,20.50
2022-08-14T02:32:47.314Z,20.50
2022-08-14T02:35:18.907Z,20.40
2022-08-14T02:37:49.093Z,20.40
2022-08-14T02:40:20.853Z,20.40
2022-08-14T02:43:02.395Z,20.40
2022-08-14T02:45:38.721Z,20.30
2022-08-14T02:49:01.469Z,20.30
2022-08-14T02:51:04.167Z,20.30
2022-08-14T02:53:33.396Z,20.30
2022-08-14T02:56:10.115Z,20.30
2022-08-14T02:58:55.764Z,20.20
2022-08-14T03:01:31.372Z,20.20
2022-08-14T03:04:12.703Z,20.10
2022-08-14T03:06:58.130Z,20.10
2022-08-14T03:09:42.109Z,20.00
2022-08-14T03:12:31.781Z,20.00
2022-08-14T03:15:14.230Z,20.00
2022-08-14T03:17:56.957Z,20.00
2022-08-14T03:20:28.321Z,20.00
2022-08-14T03:22:59.374Z,19.90
2022-08-14T03:25:34.099Z,19.90
2022-08-14T03:28:08.183Z,20.00
2022-08-14T03:30:43.951Z,20.00
2022-08-14T03:33:13.482Z,20.00
2022-08-14T03:35:59.766Z,20.00
2022-08-14T03:39:13.381Z,20.00
2022-08-14T03:41:23.647Z,20.00
2022-08-14T03:45:15.665Z,20.00
2022-08-14T03:46:52.216Z,20.00
2022-08-14T03:49:29.374Z,20.00
2022-08-14T03:52:01.179Z,20.00
2022-08-14T03:54:29.703Z,20.00
2022-08-14T03:57:02.677Z,20.00
2022-08-14T03:59:34.017Z,20.00
2022-08-14T04:02:04.702Z,20.00
2022-08-14T04:04:53.393Z,20.00
2022-08-14T04:07:22.414Z,20.00
2022-08-14T04:09:50.555Z,20.00
2022-08-14T04:12:34.988Z,20.00
2022-08-14T04:15:05.911Z,20.10
2022-08-14T04:17:35.442Z,20.10
2022-08-14T04:20:06.841Z,20.10
2022-08-14T04:22:42.557Z,20.10
2022-08-14T04:25:12.319Z,20.10
2022-08-14T04:27:48.628Z,20.10
2022-08-14T04:30:32.890Z,20.10
2022-08-14T04:33:07.356Z,20.00
2022-08-14T04:35:55.516Z,20.10
2022-08-14T04:38:42.564Z,20.00
2022-08-14T04:41:30.157Z,20.10
2022-08-14T04:43:58.580Z,20.10
2022-08-14T04:46:55.547Z,20.10
2022-08-14T04:49:15.743Z,20.10
2022-08-14T04:51:55.455Z,20.10
2022-08-14T04:54:26.898Z,20.20
2022-08-14T04:56:56.109Z,20.20
2022-08-14T04:59:25.082Z,20.20
2022-08-14T05:01:57.154Z,20.20
2022-08-14T05:04:25.841Z,20.30
2022-08-14T05:06:55.583Z,20.30
2022-08-14T05:09:24.605Z,20.30
2022-08-14T05:13:10.588Z,20.40
2022-08-14T05:14:54.672Z,20.40
2022-08-14T05:17:28.810Z,20.50
2022-08-14T05:21:54.366Z,20.50
2022-08-14T05:23:02.090Z,20.60
2022-08-14T05:25:34.343Z,20.70
2022-08-14T05:28:14.142Z,20.70
2022-08-14T05:30:44.574Z,20.80
2022-08-14T05:33:14.777Z,20.80
2022-08-14T05:35:44.205Z,20.90
2022-08-14T05:38:22.441Z,21.00
2022-08-14T05:40:59.666Z,21.10
2022-08-14T05:43:33.037Z,21.20
2022-08-14T05:46:12.464Z,21.30
2022-08-14T05:48:48.284Z,21.40
2022-08-14T05:51:16.392Z,21.40
2022-08-14T05:54:00.207Z,21.50
2022-08-14T05:56:30.826Z,21.60
2022-08-14T05:59:00.684Z,21.70
2022-08-14T06:01:31.308Z,21.80
2022-08-14T06:04:01.155Z,21.90
2022-08-14T06:06:38.331Z,21.90
2022-08-14T06:09:09.894Z,22.00
2022-08-14T06:11:38.174Z,22.10
2022-08-14T06:14:12.286Z,22.10
2022-08-14T06:16:48.835Z,22.20
2022-08-14T06:19:18.492Z,22.30
2022-08-14T06:21:46.640Z,22.40
2022-08-14T06:24:18.709Z,22.50
2022-08-14T06:26:51.964Z,22.50
2022-08-14T06:29:25.098Z,22.60
2022-08-14T06:32:00.168Z,22.70
2022-08-14T06:35:03.149Z,22.70
2022-08-14T06:37:18.809Z,22.80
2022-08-14T06:39:47.129Z,22.80
2022-08-14T06:42:22.327Z,22.90
2022-08-14T06:45:01.428Z,23.00
2022-08-14T06:47:30.988Z,23.00
2022-08-14T06:50:00.315Z,23.10
2022-08-14T06:52:28.231Z,23.10
2022-08-14T06:54:58.071Z,23.20
2022-08-14T06:57:35.298Z,23.20
2022-08-14T07:00:03.280Z,23.30
2022-08-14T07:02:50.201Z,23.30
2022-08-14T07:05:40.546Z,23.50
2022-08-14T07:08:26.625Z,23.60
2022-08-14T07:11:00.012Z,23.70
2022-08-14T07:13:30.761Z,23.80
2022-08-14T07:16:00.406Z,23.90
2022-08-14T07:18:33.999Z,24.00
2022-08-14T07:21:05.690Z,24.10
2022-08-14T07:23:40.234Z,24.10
2022-08-14T07:26:13.587Z,24.20
2022-08-14T07:28:43.889Z,24.20
2022-08-14T07:31:13.444Z,24.30
2022-08-14T07:33:49.935Z,24.30
2022-08-14T07:36:27.021Z,24.40
2022-08-14T07:38:59.426Z,24.50
2022-08-14T07:41:34.216Z,24.60
2022-08-14T07:44:29.363Z,24.70
2022-08-14T07:46:52.562Z,24.80
2022-08-14T07:49:24.128Z,25.00
2022-08-14T07:51:53.952Z,25.10
2022-08-14T07:54:23.535Z,25.20
2022-08-14T07:56:59.960Z,25.40
2022-08-14T07:59:41.880Z,25.50
2022-08-14T08:02:19.439Z,25.70
2022-08-14T08:04:53.109Z,25.80
2022-08-14T08:07:30.198Z,25.80
2022-08-14T08:10:01.238Z,25.90
2022-08-14T08:12:32.351Z,25.90
2022-08-14T08:15:07.083Z,26.00
2022-08-14T08:17:42.284Z,26.20
2022-08-14T08:20:20.103Z,26.30
2022-08-14T08:22:55.844Z,26.40
2022-08-14T08:25:24.895Z,26.60
2022-08-14T08:28:00.716Z,26.70
2022-08-14T08:30:37.915Z,26.80
2022-08-14T08:33:18.585Z,27.00
2022-08-14T08:35:50.842Z,27.10
2022-08-14T08:39:15.620Z,27.20
2022-08-14T08:41:12.300Z,27.30
2022-08-14T08:43:46.145Z,27.50
2022-08-14T08:46:21.078Z,27.70
2022-08-14T08:48:53.695Z,27.80
2022-08-14T08:51:30.476Z,27.80
2022-08-14T08:54:04.943Z,28.00
2022-08-14T08:56:39.972Z,28.00
2022-08-14T08:59:20.834Z,28.10
2022-08-14T09:01:51.570Z,28.30
2022-08-14T09:04:24.663Z,28.50
2022-08-14T09:07:09.778Z,28.50
2022-08-14T09:09:54.466Z,28.70
2022-08-14T09:12:31.521Z,28.80
2022-08-14T09:15:01.057Z,29.20
2022-08-14T09:17:29.749Z,29.80
2022-08-14T09:20:01.729Z,30.60
2022-08-14T09:22:35.532Z,31.50
2022-08-14T09:25:07.858Z,32.50
2022-08-14T09:27:36.570Z,33.40
2022-08-14T09:30:30.997Z,34.30
2022-08-14T09:33:22.834Z,35.90
2022-08-14T09:36:08.840Z,38.70
2022-08-14T09:38:48.426Z,41.70
2022-08-14T09:42:21.323Z,43.80
2022-08-14T09:44:42.889Z,45.50
2022-08-14T09:47:14.922Z,47.20
2022-08-14T09:49:43.481Z,48.30
2022-08-14T09:52:23.825Z,49.30
2022-08-14T09:55:03.302Z,50.00
2022-08-14T09:57:33.450Z,50.70
2022-08-14T10:00:12.148Z,51.30
2022-08-14T10:03:30.320Z,51.70
2022-08-14T10:06:28.269Z,52.40
2022-08-14T10:09:17.095Z,52.10
2022-08-14T10:12:13.305Z,51.90
2022-08-14T10:15:20.571Z,52.30
2022-08-14T10:18:17.644Z,52.90
2022-08-14T10:21:11.639Z,53.50
2022-08-14T10:24:09.353Z,53.40
2022-08-14T10:27:01.127Z,53.50
2022-08-14T10:29:51.377Z,53.30
2022-08-14T10:32:51.230Z,53.10
2022-08-14T10:35:48.003Z,52.90
2022-08-14T10:38:26.862Z,52.80
2022-08-14T10:40:59.519Z,53.00
2022-08-14T10:43:31.891Z,52.90
2022-08-14T10:46:21.936Z,52.50
2022-08-14T10:49:04.940Z,52.30
2022-08-14T10:51:39.598Z,52.10
2022-08-14T10:54:35.028Z,52.50
2022-08-14T10:57:17.123Z,52.70
2022-08-14T10:59:47.978Z,52.20
2022-08-14T11:02:50.263Z,52.10
2022-08-14T11:05:15.748Z,51.70
2022-08-14T11:07:57.072Z,51.50
2022-08-14T11:10:43.199Z,50.30
2022-08-14T11:13:16.497Z,49.50
2022-08-14T11:15:46.217Z,49.20
2022-08-14T11:18:20.753Z,48.40
2022-08-14T11:21:02.255Z,46.60
2022-08-14T11:23:37.750Z,44.70
2022-08-14T11:26:10.253Z,43.70
2022-08-14T11:28:48.190Z,42.90
2022-08-14T11:31:20.554Z,42.20
2022-08-14T11:33:53.052Z,41.40
2022-08-14T11:36:57.264Z,40.50
2022-08-14T11:39:33.979Z,39.70
2022-08-14T11:42:07.776Z,39.10
2022-08-14T11:44:56.685Z,38.50
2022-08-14T11:47:35.657Z,38.00
2022-08-14T11:50:34.023Z,37.40
2022-08-14T11:53:08.728Z,36.90
2022-08-14T11:55:39.041Z,36.40
2022-08-14T11:58:10.541Z,36.20
2022-08-14T12:00:48.302Z,35.90
2022-08-14T12:03:19.894Z,35.80
2022-08-14T12:06:06.046Z,35.60
2022-08-14T12:08:52.774Z,35.40
2022-08-14T12:11:22.264Z,35.20
2022-08-14T12:13:55.876Z,35.10
2022-08-14T12:16:25.049Z,34.90
2022-08-14T12:18:59.065Z,34.80
2022-08-14T12:21:29.515Z,34.70
2022-08-14T12:24:08.362Z,34.70
2022-08-14T12:26:40.534Z,34.60
2022-08-14T12:29:11.416Z,34.60
2022-08-14T12:31:46.977Z,34.40
2022-08-14T12:34:20.591Z,34.30
2022-08-14T12:36:54.227Z,34.30
2022-08-14T12:39:24.810Z,34.20
2022-08-14T12:41:57.116Z,34.00
2022-08-14T12:44:30.982Z,34.00
2022-08-14T12:47:07.566Z,34.10
2022-08-14T12:49:35.656Z,34.10
2022-08-14T12:52:04.376Z,34.10
2022-08-14T12:54:33.640Z,34.20
2022-08-14T12:57:06.717Z,34.40
2022-08-14T12:59:37.341Z,34.30
2022-08-14T13:02:22.561Z,34.50
2022-08-14T13:04:55.637Z,34.50
2022-08-14T13:07:24.243Z,34.40
2022-08-14T13:09:57.960Z,34.50
2022-08-14T13:12:33.740Z,34.50
2022-08-14T13:15:12.925Z,34.60
2022-08-14T13:17:45.243Z,34.90
2022-08-14T13:20:24.518Z,35.10
2022-08-14T13:22:54.917Z,34.90
2022-08-14T13:25:27.267Z,35.10
2022-08-14T13:28:00.024Z,35.20
2022-08-14T13:30:29.057Z,35.30
2022-08-14T13:33:01.045Z,35.60
2022-08-14T13:35:29.323Z,35.80
2022-08-14T13:37:57.881Z,36.20
2022-08-14T13:40:29.325Z,36.30
2022-08-14T13:42:58.213Z,36.30
2022-08-14T13:45:33.702Z,36.40
2022-08-14T13:48:18.301Z,36.40
2022-08-14T13:51:01.636Z,36.40
2022-08-14T13:53:34.976Z,36.30
2022-08-14T13:56:08.123Z,36.40
2022-08-14T13:58:47.115Z,36.40
2022-08-14T14:01:18.920Z,36.50
2022-08-14T14:03:50.072Z,36.50
2022-08-14T14:06:20.987Z,36.60
2022-08-14T14:08:50.424Z,36.70
2022-08-14T14:11:24.380Z,36.70
2022-08-14T14:13:53.158Z,36.40
2022-08-14T14:16:30.153Z,36.00
2022-08-14T14:19:06.023Z,35.80
2022-08-14T14:21:35.322Z,36.00
2022-08-14T14:24:06.116Z,36.10
2022-08-14T14:26:36.154Z,36.10
2022-08-14T14:29:07.570Z,36.20
2022-08-14T14:31:38.815Z,36.20
2022-08-14T14:34:19.896Z,36.60
2022-08-14T14:37:04.716Z,37.00
2022-08-14T14:39:35.182Z,37.40
2022-08-14T14:42:13.789Z,37.50
2022-08-14T14:44:53.050Z,37.70
2022-08-14T14:47:26.291Z,37.80
2022-08-14T14:49:55.806Z,37.80
2022-08-14T14:52:27.534Z,37.70
2022-08-14T14:54:58.424Z,37.40
2022-08-14T14:57:35.859Z,37.00
2022-08-14T15:00:08.786Z,36.70
2022-08-14T15:02:42.594Z,36.20
2022-08-14T15:05:12.687Z,35.80
2022-08-14T15:07:41.435Z,35.80
2022-08-14T15:10:27.074Z,35.80
2022-08-14T15:13:04.497Z,35.80
2022-08-14T15:15:37.377Z,35.80
2022-08-14T15:18:14.892Z,36.00
2022-08-14T15:20:57.392Z,36.10
2022-08-14T15:23:32.535Z,35.90
2022-08-14T15:26:24.515Z,35.90
2022-08-14T15:29:04.914Z,35.80
2022-08-14T15:31:36.325Z,35.70
2022-08-14T15:34:44.381Z,35.70
2022-08-14T15:37:03.847Z,35.80
2022-08-14T15:39:35.769Z,35.90
2022-08-14T15:42:14.653Z,35.90
2022-08-14T15:44:56.906Z,35.70
2022-08-14T15:47:28.705Z,35.50
2022-08-14T15:49:59.346Z,35.30
2022-08-14T15:52:32.527Z,35.20
2022-08-14T15:55:04.325Z,35.10
2022-08-14T15:57:32.400Z,35.20
2022-08-14T16:00:40.138Z,35.20
2022-08-14T16:03:11.586Z,35.10
2022-08-14T16:05:39.799Z,34.90
2022-08-14T16:08:28.943Z,34.80
2022-08-14T16:10:57.627Z,34.60
2022-08-14T16:13:41.183Z,34.60
2022-08-14T16:16:47.828Z,34.40
2022-08-14T16:19:09.652Z,34.30
2022-08-14T16:21:58.277Z,34.10
2022-08-14T16:24:33.183Z,34.00
2022-08-14T16:27:03.431Z,34.00
2022-08-14T16:29:35.690Z,33.90
2022-08-14T16:32:33.519Z,33.80
2022-08-14T16:34:55.858Z,33.80
2022-08-14T16:37:31.072Z,33.70
2022-08-14T16:40:03.091Z,33.70
2022-08-14T16:42:39.406Z,33.60
2022-08-14T16:45:26.215Z,33.60
2022-08-14T16:47:57.140Z,33.70
2022-08-14T16:50:40.467Z,33.60
2022-08-14T16:53:17.165Z,33.60
2022-08-14T16:55:53.757Z,33.40
2022-08-14T16:58:29.975Z,33.30
2022-08-14T17:01:24.451Z,33.10
2022-08-14T17:03:58.128Z,33.00
2022-08-14T17:06:38.288Z,32.80
2022-08-14T17:09:07.624Z,32.70
2022-08-14T17:11:51.993Z,32.50
2022-08-14T17:14:24.346Z,32.40
2022-08-14T17:16:59.456Z,32.30
2022-08-14T17:19:41.206Z,32.30
2022-08-14T17:22:11.903Z,32.10
2022-08-14T17:24:58.161Z,32.00
2022-08-14T17:27:30.304Z,31.90
2022-08-14T17:29:58.439Z,31.80
2022-08-14T17:32:56.586Z,31.70
2022-08-14T17:38:38.950Z,31.50
2022-08-14T17:41:22.846Z,31.40
2022-08-14T17:43:55.332Z,31.40
2022-08-14T17:46:36.454Z,31.30
2022-08-14T17:49:13.753Z,31.20
2022-08-14T17:52:01.653Z,31.10
2022-08-14T17:54:34.765Z,31.10
2022-08-14T17:57:13.020Z,31.00
2022-08-14T17:59:44.092Z,30.90
2022-08-14T18:02:16.860Z,30.90
2022-08-14T18:04:45.682Z,30.80
2022-08-14T18:07:59.375Z,30.80
2022-08-14T18:10:51.728Z,30.70
2022-08-14T18:12:58.796Z,30.60
2022-08-14T18:15:36.864Z,30.50
2022-08-14T18:18:08.847Z,30.40
2022-08-14T18:21:40.623Z,30.30
2022-08-14T18:23:28.272Z,30.30
2022-08-14T18:25:59.314Z,30.20
2022-08-14T18:28:40.092Z,30.10
2022-08-14T18:31:42.125Z,30.00
2022-08-14T18:34:31.666Z,29.90
2022-08-14T18:37:16.787Z,29.80
2022-08-14T18:40:01.209Z,29.70
2022-08-14T18:42:44.034Z,29.60
2022-08-14T18:45:15.564Z,29.40
2022-08-14T18:50:52.178Z,29.30
2022-08-14T18:53:24.722Z,29.10
2022-08-14T18:56:02.118Z,29.10
2022-08-14T18:58:56.999Z,29.00
2022-08-14T19:01:29.645Z,28.90
2022-08-14T19:03:58.879Z,28.80
2022-08-14T19:06:56.377Z,28.80
2022-08-14T19:09:53.640Z,28.60
2022-08-14T19:13:00.154Z,28.50
2022-08-14T19:15:29.783Z,28.40
2022-08-14T19:18:14.839Z,28.20
2022-08-14T19:20:53.358Z,28.10
2022-08-14T19:23:43.167Z,28.00
2022-08-14T19:26:36.310Z,27.90
2022-08-14T19:29:36.290Z,27.90
2022-08-14T19:32:36.727Z,27.80
2022-08-14T19:35:17.169Z,27.60
2022-08-14T19:37:52.067Z,27.50
2022-08-14T19:40:34.091Z,27.40
2022-08-14T19:43:06.431Z,27.30
2022-08-14T19:45:37.372Z,27.20
2022-08-14T19:48:12.484Z,27.10
2022-08-14T19:50:44.224Z,27.00
2022-08-14T19:53:17.100Z,26.90
2022-08-14T19:55:59.282Z,26.90
2022-08-14T19:58:55.191Z,26.80
2022-08-14T20:01:36.604Z,26.60
2022-08-14T20:04:46.838Z,26.50
2022-08-14T20:07:00.041Z,26.50
2022-08-14T20:11:08.491Z,26.40
2022-08-14T20:12:29.111Z,26.30
2022-08-14T20:15:10.190Z,26.20
2022-08-14T20:17:40.985Z,26.20
2022-08-14T20:20:20.884Z,26.10
2022-08-14T20:22:58.655Z,26.00
2022-08-14T20:25:37.669Z,25.90
2022-08-14T20:28:28.833Z,25.80
2022-08-14T20:31:14.199Z,25.70
2022-08-14T20:34:18.756Z,25.60
2022-08-14T20:37:04.284Z,25.60
2022-08-14T20:39:34.422Z,25.40
2022-08-14T20:42:31.635Z,25.40
2022-08-14T20:45:19.995Z,25.40
2022-08-14T20:47:58.503Z,25.30
2022-08-14T20:50:31.891Z,25.20
2022-08-14T20:53:00.920Z,25.10
2022-08-14T20:55:41.772Z,25.10
2022-08-14T20:58:38.752Z,25.10
2022-08-14T21:01:36.027Z,25.00
2022-08-14T21:04:20.801Z,25.00
2022-08-14T21:07:25.726Z,24.90
2022-08-14T21:10:05.421Z,24.80
2022-08-14T21:12:34.949Z,24.80
2022-08-14T21:15:11.189Z,24.70
2022-08-14T21:17:43.997Z,24.70
2022-08-14T21:20:25.456Z,24.60
2022-08-14T21:22:56.561Z,24.60
2022-08-14T21:25:24.935Z,24.60
2022-08-14T21:27:59.071Z,24.50
2022-08-14T21:30:50.972Z,24.50
2022-08-14T21:33:20.496Z,24.40
2022-08-14T21:35:50.041Z,24.40
2022-08-14T21:38:33.576Z,24.30
2022-08-14T21:41:41.441Z,24.30
2022-08-14T21:44:17.582Z,24.30
2022-08-14T21:46:53.637Z,24.30
2022-08-14T21:49:25.557Z,24.20
2022-08-14T21:52:50.980Z,24.20
2022-08-14T21:54:53.503Z,24.20
2022-08-14T21:57:56.200Z,24.20
2022-08-14T22:00:35.772Z,24.20
2022-08-14T22:03:09.189Z,24.20
2022-08-14T22:05:40.639Z,24.20
2022-08-14T22:08:12.077Z,24.20
2022-08-14T22:10:41.433Z,24.20
2022-08-14T22:13:11.303Z,24.20
2022-08-14T22:15:43.926Z,24.20
2022-08-14T22:18:20.128Z,24.20
2022-08-14T22:20:53.811Z,24.20
2022-08-14T22:23:23.783Z,24.20
2022-08-14T22:25:52.649Z,24.10
2022-08-14T22:28:25.238Z,24.10
2022-08-14T22:30:55.002Z,24.10
2022-08-14T22:33:31.066Z,24.10
2022-08-14T22:36:01.667Z,24.00
2022-08-14T22:38:37.670Z,24.00
2022-08-14T22:41:26.930Z,24.00
2022-08-14T22:44:01.796Z,24.00
2022-08-14T22:46:30.023Z,24.00
2022-08-14T22:48:58.387Z,23.90
2022-08-14T22:51:28.129Z,23.90
2022-08-14T22:53:58.509Z,23.90
2022-08-14T22:56:30.258Z,23.90
2022-08-14T22:59:00.181Z,23.90
2022-08-14T23:01:55.417Z,23.90
2022-08-14T23:04:34.186Z,23.90
2022-08-14T23:07:09.379Z,23.90
2022-08-14T23:09:56.351Z,23.80
2022-08-14T23:12:28.312Z,23.80
2022-08-14T23:14:57.308Z,23.80
2022-08-14T23:17:26.417Z,23.80
2022-08-14T23:19:56.480Z,23.80
2022-08-14T23:22:26.523Z,23.80
2022-08-14T23:24:56.812Z,23.80
2022-08-14T23:27:31.972Z,23.70
2022-08-14T23:30:34.261Z,23.70
2022-08-14T23:33:03.321Z,23.60
2022-08-14T23:35:33.054Z,23.60
2022-08-14T23:38:05.440Z,23.60
2022-08-14T23:40:35.735Z,23.60
2022-08-14T23:43:08.000Z,23.50
2022-08-14T23:45:38.581Z,23.50
2022-08-14T23:48:09.989Z,23.50
2022-08-14T23:50:44.256Z,23.40
2022-08-14T23:53:47.029Z,23.40
2022-08-14T23:56:08.759Z,23.40
2022-08-14T23:58:37.216Z,23.30
